sensor_id;sensor_type;location;lat;lon;timestamp;pressure;altitude;pressure_sealevel;temperature;humidity
70815;BME280;58428;49.478;10.986;2023-01-23T00:00:57;99706.44;;;1.76;100.00
70815;BME280;58428;49.478;10.986;2023-01-23T00:03:23;99712.97;;;1.68;100.00
70815;BME280;58428;49.478;10.986;2023-01-23T00:06:12;99710.38;;;1.57;100.00
70815;BME280;58428;49.478;10.986;2023-01-23T00:08:39;99703.97;;;1.58;100.00
70815;BME280;58428;49.478;10.986;2023-01-23T00:11:06;99711.50;;;1.61;100.00
70815;BME280;58428;49.478;10.986;2023-01-23T00:13:33;99713.34;;;1.60;100.00
70815;BME280;58428;49.478;10.986;2023-01-23T00:15:58;99719.13;;;1.69;100.00
70815;BME280;58428;49.478;10.986;2023-01-23T00:18:24;99723.16;;;1.71;100.00
70815;BME280;58428;49.478;10.986;2023-01-23T00:20:49;99722.19;;;1.61;100.00
70815;BME280;58428;49.478;10.986;2023-01-23T00:23:14;99730.59;;;1.69;100.00
70815;BME280;58428;49.478;10.986;2023-01-23T00:25:40;99719.78;;;1.76;100.00
70815;BME280;58428;49.478;10.986;2023-01-23T00:28:05;99721.25;;;1.83;100.00
70815;BME280;58428;49.478;10.986;2023-01-23T00:30:31;99721.81;;;1.85;100.00
70815;BME280;58428;49.478;10.986;2023-01-23T00:32:57;99723.84;;;1.78;100.00
70815;BME280;58428;49.478;10.986;2023-01-23T00:35:23;99720.69;;;1.81;100.00
70815;BME280;58428;49.478;10.986;2023-01-23T00:37:48;99726.63;;;1.72;100.00
70815;BME280;58428;49.478;10.986;2023-01-23T00:40:14;99717.44;;;1.79;100.00
70815;BME280;58428;49.478;10.986;2023-01-23T00:42:39;99720.16;;;1.68;100.00
70815;BME280;58428;49.478;10.986;2023-01-23T00:45:06;99727.66;;;1.82;100.00
70815;BME280;58428;49.478;10.986;2023-01-23T00:47:32;99720.47;;;1.83;100.00
70815;BME280;58428;49.478;10.986;2023-01-23T00:49:57;99724.84;;;1.88;100.00
70815;BME280;58428;49.478;10.986;2023-01-23T00:52:24;99733.00;;;1.82;100.00
70815;BME280;58428;49.478;10.986;2023-01-23T00:54:49;99727.69;;;1.71;100.00
70815;BME280;58428;49.478;10.986;2023-01-23T00:57:15;99737.88;;;1.74;100.00
70815;BME280;58428;49.478;10.986;2023-01-23T00:59:40;99734.03;;;1.81;100.00
70815;BME280;58428;49.478;10.986;2023-01-23T01:02:06;99739.13;;;1.83;100.00
70815;BME280;58428;49.478;10.986;2023-01-23T01:04:31;99747.22;;;1.87;100.00
70815;BME280;58428;49.478;10.986;2023-01-23T01:06:58;99748.84;;;1.88;100.00
70815;BME280;58428;49.478;10.986;2023-01-23T01:09:23;99749.13;;;2.03;100.00
70815;BME280;58428;49.478;10.986;2023-01-23T01:11:49;99749.72;;;2.05;100.00
70815;BME280;58428;49.478;10.986;2023-01-23T01:14:15;99750.19;;;2.02;100.00
70815;BME280;58428;49.478;10.986;2023-01-23T01:16:40;99748.66;;;2.06;100.00
70815;BME280;58428;49.478;10.986;2023-01-23T01:19:15;99754.84;;;1.95;100.00
70815;BME280;58428;49.478;10.986;2023-01-23T01:21:41;99757.88;;;1.87;100.00
70815;BME280;58428;49.478;10.986;2023-01-23T01:24:07;99761.44;;;1.77;100.00
70815;BME280;58428;49.478;10.986;2023-01-23T01:26:33;99755.25;;;1.76;100.00
70815;BME280;58428;49.478;10.986;2023-01-23T01:28:59;99763.59;;;1.80;100.00
70815;BME280;58428;49.478;10.986;2023-01-23T01:31:25;99770.19;;;1.88;100.00
70815;BME280;58428;49.478;10.986;2023-01-23T01:33:50;99770.63;;;1.97;100.00
70815;BME280;58428;49.478;10.986;2023-01-23T01:36:17;99773.19;;;1.92;100.00
70815;BME280;58428;49.478;10.986;2023-01-23T01:38:43;99771.72;;;1.84;100.00
70815;BME280;58428;49.478;10.986;2023-01-23T01:41:09;99782.94;;;1.98;100.00
70815;BME280;58428;49.478;10.986;2023-01-23T01:43:36;99771.13;;;2.10;100.00
70815;BME280;58428;49.478;10.986;2023-01-23T01:54:26;99779.28;;;2.31;100.00
70815;BME280;58428;49.478;10.986;2023-01-23T01:59:54;99777.28;;;2.38;100.00
70815;BME280;58428;49.478;10.986;2023-01-23T02:02:29;99778.38;;;2.26;100.00
70815;BME280;58428;49.478;10.986;2023-01-23T02:05:01;99777.28;;;2.11;100.00
70815;BME280;58428;49.478;10.986;2023-01-23T02:07:38;99781.06;;;1.98;100.00
70815;BME280;58428;49.478;10.986;2023-01-23T02:10:08;99777.97;;;1.90;100.00
70815;BME280;58428;49.478;10.986;2023-01-23T02:12:34;99780.69;;;1.79;100.00
70815;BME280;58428;49.478;10.986;2023-01-23T02:15:01;99787.22;;;1.87;100.00
70815;BME280;58428;49.478;10.986;2023-01-23T02:17:29;99782.19;;;2.02;100.00
70815;BME280;58428;49.478;10.986;2023-01-23T02:20:04;99783.44;;;2.11;100.00
70815;BME280;58428;49.478;10.986;2023-01-23T02:25:32;99785.16;;;2.17;100.00
70815;BME280;58428;49.478;10.986;2023-01-23T02:28:01;99786.88;;;2.23;100.00
70815;BME280;58428;49.478;10.986;2023-01-23T02:30:27;99790.44;;;2.28;100.00
70815;BME280;58428;49.478;10.986;2023-01-23T02:32:52;99785.91;;;2.29;100.00
70815;BME280;58428;49.478;10.986;2023-01-23T02:35:22;99795.06;;;2.33;100.00
70815;BME280;58428;49.478;10.986;2023-01-23T02:37:51;99795.63;;;2.35;100.00
70815;BME280;58428;49.478;10.986;2023-01-23T02:40:29;99801.81;;;2.24;100.00
70815;BME280;58428;49.478;10.986;2023-01-23T02:42:55;99795.00;;;2.17;100.00
70815;BME280;58428;49.478;10.986;2023-01-23T02:45:21;99788.28;;;2.14;100.00
70815;BME280;58428;49.478;10.986;2023-01-23T02:47:48;99787.53;;;2.02;100.00
70815;BME280;58428;49.478;10.986;2023-01-23T02:50:16;99791.34;;;2.06;100.00
70815;BME280;58428;49.478;10.986;2023-01-23T02:52:43;99798.91;;;2.09;100.00
70815;BME280;58428;49.478;10.986;2023-01-23T02:55:10;99800.50;;;2.10;100.00
70815;BME280;58428;49.478;10.986;2023-01-23T02:57:35;99799.66;;;2.21;100.00
70815;BME280;58428;49.478;10.986;2023-01-23T03:00:00;99793.34;;;2.27;100.00
70815;BME280;58428;49.478;10.986;2023-01-23T03:02:42;99785.56;;;2.25;100.00
70815;BME280;58428;49.478;10.986;2023-01-23T03:05:09;99775.50;;;2.00;100.00
70815;BME280;58428;49.478;10.986;2023-01-23T03:07:35;99775.53;;;1.88;100.00
70815;BME280;58428;49.478;10.986;2023-01-23T03:10:01;99778.19;;;1.88;100.00
70815;BME280;58428;49.478;10.986;2023-01-23T03:12:28;99775.03;;;1.91;100.00
70815;BME280;58428;49.478;10.986;2023-01-23T03:14:53;99771.41;;;1.97;100.00
70815;BME280;58428;49.478;10.986;2023-01-23T03:17:21;99763.38;;;2.09;100.00
70815;BME280;58428;49.478;10.986;2023-01-23T03:19:46;99757.31;;;2.13;100.00
70815;BME280;58428;49.478;10.986;2023-01-23T03:22:11;99754.41;;;2.15;100.00
70815;BME280;58428;49.478;10.986;2023-01-23T03:24:37;99758.53;;;2.22;100.00
70815;BME280;58428;49.478;10.986;2023-01-23T03:27:03;99756.53;;;2.29;100.00
70815;BME280;58428;49.478;10.986;2023-01-23T03:32:13;99757.44;;;2.34;100.00
70815;BME280;58428;49.478;10.986;2023-01-23T03:34:39;99750.88;;;2.25;100.00
70815;BME280;58428;49.478;10.986;2023-01-23T03:37:08;99748.44;;;2.24;100.00
70815;BME280;58428;49.478;10.986;2023-01-23T03:39:34;99756.41;;;2.08;100.00
70815;BME280;58428;49.478;10.986;2023-01-23T03:42:18;99764.44;;;2.08;100.00
70815;BME280;58428;49.478;10.986;2023-01-23T03:44:44;99762.41;;;2.15;100.00
70815;BME280;58428;49.478;10.986;2023-01-23T03:47:10;99759.66;;;2.10;100.00
70815;BME280;58428;49.478;10.986;2023-01-23T03:49:35;99763.81;;;2.17;100.00
70815;BME280;58428;49.478;10.986;2023-01-23T03:52:01;99765.41;;;2.18;100.00
70815;BME280;58428;49.478;10.986;2023-01-23T03:54:28;99768.97;;;2.07;100.00
70815;BME280;58428;49.478;10.986;2023-01-23T03:56:53;99767.44;;;2.11;100.00
70815;BME280;58428;49.478;10.986;2023-01-23T03:59:20;99776.09;;;2.18;100.00
70815;BME280;58428;49.478;10.986;2023-01-23T04:01:47;99765.59;;;2.28;100.00
70815;BME280;58428;49.478;10.986;2023-01-23T04:04:13;99778.47;;;2.31;100.00
70815;BME280;58428;49.478;10.986;2023-01-23T04:06:39;99789.84;;;2.26;100.00
70815;BME280;58428;49.478;10.986;2023-01-23T04:09:04;99783.88;;;2.19;100.00
70815;BME280;58428;49.478;10.986;2023-01-23T04:11:30;99794.19;;;2.16;100.00
70815;BME280;58428;49.478;10.986;2023-01-23T04:13:55;99795.72;;;2.12;100.00
70815;BME280;58428;49.478;10.986;2023-01-23T04:16:21;99797.22;;;2.19;100.00
70815;BME280;58428;49.478;10.986;2023-01-23T04:18:48;99805.44;;;2.18;100.00
70815;BME280;58428;49.478;10.986;2023-01-23T04:21:13;99805.69;;;2.17;100.00
70815;BME280;58428;49.478;10.986;2023-01-23T04:23:39;99814.22;;;2.02;100.00
70815;BME280;58428;49.478;10.986;2023-01-23T04:26:04;99819.78;;;2.01;100.00
70815;BME280;58428;49.478;10.986;2023-01-23T04:28:30;99815.03;;;2.03;100.00
70815;BME280;58428;49.478;10.986;2023-01-23T04:30:57;99825.13;;;2.01;100.00
70815;BME280;58428;49.478;10.986;2023-01-23T04:33:24;99817.84;;;1.96;100.00
70815;BME280;58428;49.478;10.986;2023-01-23T04:35:57;99820.59;;;2.01;100.00
70815;BME280;58428;49.478;10.986;2023-01-23T04:38:25;99813.41;;;2.02;100.00
70815;BME280;58428;49.478;10.986;2023-01-23T04:40:52;99816.31;;;2.00;100.00
70815;BME280;58428;49.478;10.986;2023-01-23T04:43:17;99813.66;;;2.00;100.00
70815;BME280;58428;49.478;10.986;2023-01-23T04:45:45;99816.06;;;2.13;100.00
70815;BME280;58428;49.478;10.986;2023-01-23T04:48:11;99815.78;;;2.15;100.00
70815;BME280;58428;49.478;10.986;2023-01-23T04:50:37;99817.00;;;2.07;100.00
70815;BME280;58428;49.478;10.986;2023-01-23T04:53:03;99811.75;;;2.12;100.00
70815;BME280;58428;49.478;10.986;2023-01-23T04:55:30;99814.66;;;2.11;100.00
70815;BME280;58428;49.478;10.986;2023-01-23T04:57:56;99818.94;;;2.12;100.00
70815;BME280;58428;49.478;10.986;2023-01-23T05:00:22;99813.13;;;2.15;100.00
70815;BME280;58428;49.478;10.986;2023-01-23T05:02:48;99819.34;;;2.04;100.00
70815;BME280;58428;49.478;10.986;2023-01-23T05:05:14;99806.75;;;2.16;100.00
70815;BME280;58428;49.478;10.986;2023-01-23T05:07:41;99818.22;;;2.16;100.00
70815;BME280;58428;49.478;10.986;2023-01-23T05:10:08;99822.53;;;2.17;100.00
70815;BME280;58428;49.478;10.986;2023-01-23T05:12:34;99828.00;;;2.11;100.00
70815;BME280;58428;49.478;10.986;2023-01-23T05:14:59;99828.94;;;2.05;100.00
70815;BME280;58428;49.478;10.986;2023-01-23T05:17:25;99826.03;;;2.06;100.00
70815;BME280;58428;49.478;10.986;2023-01-23T05:19:50;99829.06;;;2.10;100.00
70815;BME280;58428;49.478;10.986;2023-01-23T05:22:16;99840.97;;;2.18;100.00
70815;BME280;58428;49.478;10.986;2023-01-23T05:24:42;99831.91;;;2.19;100.00
70815;BME280;58428;49.478;10.986;2023-01-23T05:27:08;99835.50;;;2.25;100.00
70815;BME280;58428;49.478;10.986;2023-01-23T05:29:34;99834.88;;;2.34;100.00
70815;BME280;58428;49.478;10.986;2023-01-23T05:32:00;99841.25;;;2.33;100.00
70815;BME280;58428;49.478;10.986;2023-01-23T05:34:25;99844.50;;;2.35;100.00
70815;BME280;58428;49.478;10.986;2023-01-23T05:36:51;99843.59;;;2.30;100.00
70815;BME280;58428;49.478;10.986;2023-01-23T05:39:16;99845.50;;;2.18;100.00
70815;BME280;58428;49.478;10.986;2023-01-23T05:41:42;99844.97;;;2.05;100.00
70815;BME280;58428;49.478;10.986;2023-01-23T05:44:09;99857.72;;;2.03;100.00
70815;BME280;58428;49.478;10.986;2023-01-23T05:46:35;99849.34;;;2.11;100.00
70815;BME280;58428;49.478;10.986;2023-01-23T05:49:01;99854.31;;;2.18;100.00
70815;BME280;58428;49.478;10.986;2023-01-23T05:51:26;99858.38;;;2.21;100.00
70815;BME280;58428;49.478;10.986;2023-01-23T05:53:57;99871.47;;;2.22;100.00
70815;BME280;58428;49.478;10.986;2023-01-23T05:56:23;99865.81;;;2.19;100.00
70815;BME280;58428;49.478;10.986;2023-01-23T05:58:49;99877.16;;;2.26;100.00
70815;BME280;58428;49.478;10.986;2023-01-23T06:01:16;99878.03;;;2.15;100.00
70815;BME280;58428;49.478;10.986;2023-01-23T06:03:41;99882.22;;;2.11;100.00
70815;BME280;58428;49.478;10.986;2023-01-23T06:06:07;99882.59;;;2.03;100.00
70815;BME280;58428;49.478;10.986;2023-01-23T06:08:32;99892.06;;;1.99;100.00
70815;BME280;58428;49.478;10.986;2023-01-23T06:10:58;99894.06;;;2.04;100.00
70815;BME280;58428;49.478;10.986;2023-01-23T06:13:28;99894.63;;;2.06;100.00
70815;BME280;58428;49.478;10.986;2023-01-23T06:15:55;99892.66;;;2.01;100.00
70815;BME280;58428;49.478;10.986;2023-01-23T06:18:21;99903.69;;;2.05;100.00
70815;BME280;58428;49.478;10.986;2023-01-23T06:20:47;99912.25;;;2.07;100.00
70815;BME280;58428;49.478;10.986;2023-01-23T06:23:12;99911.56;;;2.11;100.00
70815;BME280;58428;49.478;10.986;2023-01-23T06:25:38;99917.72;;;2.12;100.00
70815;BME280;58428;49.478;10.986;2023-01-23T06:28:06;99917.00;;;2.16;100.00
70815;BME280;58428;49.478;10.986;2023-01-23T06:30:31;99925.34;;;2.19;100.00
70815;BME280;58428;49.478;10.986;2023-01-23T06:32:57;99933.38;;;2.19;100.00
70815;BME280;58428;49.478;10.986;2023-01-23T06:35:22;99937.19;;;2.12;100.00
70815;BME280;58428;49.478;10.986;2023-01-23T06:37:48;99935.25;;;2.08;100.00
70815;BME280;58428;49.478;10.986;2023-01-23T06:40:13;99943.72;;;2.05;100.00
70815;BME280;58428;49.478;10.986;2023-01-23T06:42:43;99951.97;;;2.03;100.00
70815;BME280;58428;49.478;10.986;2023-01-23T06:45:10;99949.31;;;2.03;100.00
70815;BME280;58428;49.478;10.986;2023-01-23T06:47:36;99941.88;;;1.94;100.00
70815;BME280;58428;49.478;10.986;2023-01-23T06:50:02;99938.63;;;2.03;100.00
70815;BME280;58428;49.478;10.986;2023-01-23T06:52:28;99945.44;;;1.99;100.00
70815;BME280;58428;49.478;10.986;2023-01-23T06:54:54;99957.19;;;1.98;100.00
70815;BME280;58428;49.478;10.986;2023-01-23T06:57:20;99951.63;;;2.00;100.00
70815;BME280;58428;49.478;10.986;2023-01-23T06:59:45;99946.03;;;2.01;100.00
70815;BME280;58428;49.478;10.986;2023-01-23T07:02:11;99954.03;;;2.01;100.00
70815;BME280;58428;49.478;10.986;2023-01-23T07:04:37;99952.44;;;2.00;100.00
70815;BME280;58428;49.478;10.986;2023-01-23T07:07:04;99960.31;;;2.07;100.00
70815;BME280;58428;49.478;10.986;2023-01-23T07:09:29;99961.22;;;2.12;100.00
70815;BME280;58428;49.478;10.986;2023-01-23T07:11:55;99973.31;;;2.03;100.00
70815;BME280;58428;49.478;10.986;2023-01-23T07:14:20;99965.78;;;2.00;100.00
70815;BME280;58428;49.478;10.986;2023-01-23T07:16:46;99968.44;;;2.00;100.00
70815;BME280;58428;49.478;10.986;2023-01-23T07:19:12;99976.31;;;2.07;100.00
70815;BME280;58428;49.478;10.986;2023-01-23T07:21:37;99968.22;;;2.13;100.00
70815;BME280;58428;49.478;10.986;2023-01-23T07:24:04;99972.72;;;2.13;100.00
70815;BME280;58428;49.478;10.986;2023-01-23T07:26:30;99971.75;;;2.18;100.00
70815;BME280;58428;49.478;10.986;2023-01-23T07:28:55;99969.44;;;2.22;100.00
70815;BME280;58428;49.478;10.986;2023-01-23T07:31:21;99976.50;;;2.28;100.00
70815;BME280;58428;49.478;10.986;2023-01-23T07:33:46;99967.56;;;2.34;100.00
70815;BME280;58428;49.478;10.986;2023-01-23T07:36:12;99974.63;;;2.40;100.00
70815;BME280;58428;49.478;10.986;2023-01-23T07:38:42;99967.88;;;2.49;100.00
70815;BME280;58428;49.478;10.986;2023-01-23T07:41:08;99960.25;;;2.41;100.00
70815;BME280;58428;49.478;10.986;2023-01-23T07:43:34;99964.88;;;2.45;100.00
70815;BME280;58428;49.478;10.986;2023-01-23T07:45:59;99972.16;;;2.50;100.00
70815;BME280;58428;49.478;10.986;2023-01-23T07:48:25;99983.75;;;2.55;100.00
70815;BME280;58428;49.478;10.986;2023-01-23T07:50:54;99983.53;;;2.56;100.00
70815;BME280;58428;49.478;10.986;2023-01-23T07:53:19;99985.41;;;2.56;100.00
70815;BME280;58428;49.478;10.986;2023-01-23T07:58:10;99982.16;;;2.54;100.00
70815;BME280;58428;49.478;10.986;2023-01-23T08:00:35;99974.38;;;2.53;100.00
70815;BME280;58428;49.478;10.986;2023-01-23T08:03:01;99977.28;;;2.40;100.00
70815;BME280;58428;49.478;10.986;2023-01-23T08:05:28;99981.69;;;2.46;100.00
70815;BME280;58428;49.478;10.986;2023-01-23T08:07:53;99979.59;;;2.48;100.00
70815;BME280;58428;49.478;10.986;2023-01-23T08:10:20;99968.91;;;2.48;100.00
70815;BME280;58428;49.478;10.986;2023-01-23T08:12:46;99968.91;;;2.48;100.00
70815;BME280;58428;49.478;10.986;2023-01-23T08:15:11;99967.66;;;2.50;100.00
70815;BME280;58428;49.478;10.986;2023-01-23T08:17:37;99972.22;;;2.38;100.00
70815;BME280;58428;49.478;10.986;2023-01-23T08:20:02;99970.19;;;2.45;100.00
70815;BME280;58428;49.478;10.986;2023-01-23T08:22:28;99968.44;;;2.51;100.00
70815;BME280;58428;49.478;10.986;2023-01-23T08:24:53;99967.28;;;2.58;100.00
70815;BME280;58428;49.478;10.986;2023-01-23T08:27:19;99984.44;;;2.62;100.00
70815;BME280;58428;49.478;10.986;2023-01-23T08:29:44;99977.56;;;2.66;100.00
70815;BME280;58428;49.478;10.986;2023-01-23T08:32:10;99977.34;;;2.67;100.00
70815;BME280;58428;49.478;10.986;2023-01-23T08:34:35;99980.25;;;2.66;100.00
70815;BME280;58428;49.478;10.986;2023-01-23T08:37:00;99978.31;;;2.61;100.00
70815;BME280;58428;49.478;10.986;2023-01-23T08:39:26;99979.00;;;2.57;100.00
70815;BME280;58428;49.478;10.986;2023-01-23T08:41:52;99983.16;;;2.64;100.00
70815;BME280;58428;49.478;10.986;2023-01-23T08:44:17;99983.50;;;2.68;100.00
70815;BME280;58428;49.478;10.986;2023-01-23T08:46:44;99988.00;;;2.79;100.00
70815;BME280;58428;49.478;10.986;2023-01-23T08:49:09;99984.25;;;2.80;100.00
70815;BME280;58428;49.478;10.986;2023-01-23T08:51:35;99985.63;;;2.82;100.00
70815;BME280;58428;49.478;10.986;2023-01-23T08:54:00;99991.44;;;2.91;100.00
70815;BME280;58428;49.478;10.986;2023-01-23T08:56:26;99984.22;;;2.91;100.00
70815;BME280;58428;49.478;10.986;2023-01-23T08:58:51;99981.44;;;2.86;100.00
70815;BME280;58428;49.478;10.986;2023-01-23T09:01:20;99979.34;;;2.88;100.00
70815;BME280;58428;49.478;10.986;2023-01-23T09:03:46;99983.22;;;2.81;100.00
70815;BME280;58428;49.478;10.986;2023-01-23T09:06:15;99981.00;;;2.78;100.00
70815;BME280;58428;49.478;10.986;2023-01-23T09:08:41;99982.38;;;2.80;100.00
70815;BME280;58428;49.478;10.986;2023-01-23T09:11:09;99985.81;;;2.92;100.00
70815;BME280;58428;49.478;10.986;2023-01-23T09:13:35;99986.88;;;2.91;100.00
70815;BME280;58428;49.478;10.986;2023-01-23T09:16:02;99985.75;;;2.87;100.00
70815;BME280;58428;49.478;10.986;2023-01-23T09:18:28;99985.75;;;2.87;100.00
70815;BME280;58428;49.478;10.986;2023-01-23T09:20:54;99991.66;;;2.89;100.00
70815;BME280;58428;49.478;10.986;2023-01-23T09:23:20;99992.53;;;3.06;100.00
70815;BME280;58428;49.478;10.986;2023-01-23T09:25:46;99992.78;;;3.21;100.00
70815;BME280;58428;49.478;10.986;2023-01-23T09:28:13;99998.41;;;3.35;100.00
70815;BME280;58428;49.478;10.986;2023-01-23T09:30:39;99985.59;;;3.37;100.00
70815;BME280;58428;49.478;10.986;2023-01-23T09:33:07;99982.69;;;3.39;100.00
70815;BME280;58428;49.478;10.986;2023-01-23T09:35:33;99980.19;;;3.49;100.00
70815;BME280;58428;49.478;10.986;2023-01-23T09:38:00;99982.34;;;3.52;100.00
70815;BME280;58428;49.478;10.986;2023-01-23T09:42:53;99973.25;;;3.36;100.00
70815;BME280;58428;49.478;10.986;2023-01-23T09:45:23;99976.19;;;3.35;100.00
70815;BME280;58428;49.478;10.986;2023-01-23T09:50:31;99970.84;;;3.51;100.00
70815;BME280;58428;49.478;10.986;2023-01-23T09:53:05;99971.97;;;3.55;100.00
70815;BME280;58428;49.478;10.986;2023-01-23T10:00:51;99983.06;;;3.64;100.00
70815;BME280;58428;49.478;10.986;2023-01-23T10:03:17;99979.69;;;3.68;100.00
70815;BME280;58428;49.478;10.986;2023-01-23T10:09:05;99971.97;;;3.88;100.00
70815;BME280;58428;49.478;10.986;2023-01-23T10:17:42;99971.06;;;3.82;100.00
70815;BME280;58428;49.478;10.986;2023-01-23T10:20:25;99966.66;;;3.93;100.00
70815;BME280;58428;49.478;10.986;2023-01-23T10:25:28;99960.34;;;4.20;100.00
70815;BME280;58428;49.478;10.986;2023-01-23T10:28:11;99961.56;;;4.29;100.00
70815;BME280;58428;49.478;10.986;2023-01-23T10:30:40;99959.75;;;4.34;100.00
70815;BME280;58428;49.478;10.986;2023-01-23T10:33:13;99960.47;;;4.51;100.00
70815;BME280;58428;49.478;10.986;2023-01-23T10:41:01;99944.69;;;4.75;100.00
70815;BME280;58428;49.478;10.986;2023-01-23T10:43:40;99940.66;;;4.73;100.00
70815;BME280;58428;49.478;10.986;2023-01-23T10:46:19;99951.13;;;4.75;100.00
70815;BME280;58428;49.478;10.986;2023-01-23T10:48:50;99951.03;;;4.65;100.00
70815;BME280;58428;49.478;10.986;2023-01-23T10:54:24;99947.56;;;4.90;100.00
70815;BME280;58428;49.478;10.986;2023-01-23T11:02:17;99947.19;;;5.08;100.00
70815;BME280;58428;49.478;10.986;2023-01-23T11:04:45;99944.19;;;5.05;100.00
70815;BME280;58428;49.478;10.986;2023-01-23T11:07:21;99941.47;;;5.00;100.00
70815;BME280;58428;49.478;10.986;2023-01-23T11:09:58;99950.53;;;4.94;100.00
70815;BME280;58428;49.478;10.986;2023-01-23T11:12:32;99942.69;;;4.87;100.00
70815;BME280;58428;49.478;10.986;2023-01-23T11:15:24;99942.47;;;4.68;100.00
70815;BME280;58428;49.478;10.986;2023-01-23T11:17:52;99941.16;;;4.70;100.00
70815;BME280;58428;49.478;10.986;2023-01-23T11:23:14;99939.25;;;4.92;100.00
70815;BME280;58428;49.478;10.986;2023-01-23T11:25:46;99934.63;;;4.87;100.00
70815;BME280;58428;49.478;10.986;2023-01-23T11:31:23;99933.75;;;4.56;100.00
70815;BME280;58428;49.478;10.986;2023-01-23T11:34:10;99925.41;;;4.52;100.00
70815;BME280;58428;49.478;10.986;2023-01-23T11:37:03;99925.72;;;4.35;100.00
70815;BME280;58428;49.478;10.986;2023-01-23T11:40:32;99927.59;;;4.34;100.00
70815;BME280;58428;49.478;10.986;2023-01-23T11:42:41;99924.59;;;4.31;100.00
70815;BME280;58428;49.478;10.986;2023-01-23T11:45:26;99916.25;;;4.27;100.00
70815;BME280;58428;49.478;10.986;2023-01-23T11:53:41;99911.84;;;4.16;100.00
70815;BME280;58428;49.478;10.986;2023-01-23T12:05:24;99895.19;;;4.57;100.00
70815;BME280;58428;49.478;10.986;2023-01-23T12:08:05;99891.50;;;4.63;100.00
70815;BME280;58428;49.478;10.986;2023-01-23T12:11:02;99889.56;;;4.58;100.00
70815;BME280;58428;49.478;10.986;2023-01-23T12:17:10;99887.41;;;4.55;100.00
70815;BME280;58428;49.478;10.986;2023-01-23T12:22:19;99889.91;;;4.19;100.00
70815;BME280;58428;49.478;10.986;2023-01-23T12:27:38;99874.22;;;4.06;100.00
70815;BME280;58428;49.478;10.986;2023-01-23T12:38:09;99855.53;;;4.11;100.00
70815;BME280;58428;49.478;10.986;2023-01-23T12:43:57;99840.16;;;4.49;100.00
70815;BME280;58428;49.478;10.986;2023-01-23T12:46:53;99842.53;;;4.46;100.00
70815;BME280;58428;49.478;10.986;2023-01-23T12:52:12;99831.59;;;4.52;100.00
70815;BME280;58428;49.478;10.986;2023-01-23T12:54:44;99818.91;;;4.69;100.00
70815;BME280;58428;49.478;10.986;2023-01-23T12:57:13;99826.19;;;4.74;100.00
70815;BME280;58428;49.478;10.986;2023-01-23T13:00:08;99831.00;;;4.72;100.00
70815;BME280;58428;49.478;10.986;2023-01-23T13:05:32;99828.84;;;5.00;100.00
70815;BME280;58428;49.478;10.986;2023-01-23T13:08:06;99823.47;;;5.00;100.00
70815;BME280;58428;49.478;10.986;2023-01-23T13:13:47;99818.00;;;4.85;100.00
70815;BME280;58428;49.478;10.986;2023-01-23T13:16:15;99811.84;;;4.89;100.00
70815;BME280;58428;49.478;10.986;2023-01-23T13:18:56;99816.88;;;4.81;100.00
70815;BME280;58428;49.478;10.986;2023-01-23T13:35:55;99809.44;;;5.24;100.00
70815;BME280;58428;49.478;10.986;2023-01-23T13:44:00;99802.97;;;5.20;100.00
70815;BME280;58428;49.478;10.986;2023-01-23T13:52:14;99788.69;;;5.10;100.00
70815;BME280;58428;49.478;10.986;2023-01-23T13:55:05;99784.31;;;4.99;100.00
70815;BME280;58428;49.478;10.986;2023-01-23T13:57:57;99789.84;;;4.87;100.00
70815;BME280;58428;49.478;10.986;2023-01-23T14:00:23;99790.84;;;4.76;100.00
70815;BME280;58428;49.478;10.986;2023-01-23T14:02:56;99797.81;;;4.77;100.00
70815;BME280;58428;49.478;10.986;2023-01-23T14:05:42;99801.81;;;4.75;100.00
70815;BME280;58428;49.478;10.986;2023-01-23T14:08:19;99797.00;;;4.77;100.00
70815;BME280;58428;49.478;10.986;2023-01-23T14:10:47;99793.56;;;4.81;100.00
70815;BME280;58428;49.478;10.986;2023-01-23T14:13:18;99795.69;;;4.79;100.00
70815;BME280;58428;49.478;10.986;2023-01-23T14:15:54;99800.72;;;4.76;100.00
70815;BME280;58428;49.478;10.986;2023-01-23T14:18:48;99791.47;;;4.88;100.00
70815;BME280;58428;49.478;10.986;2023-01-23T14:21:29;99785.50;;;4.81;100.00
70815;BME280;58428;49.478;10.986;2023-01-23T14:23:59;99787.13;;;4.82;100.00
70815;BME280;58428;49.478;10.986;2023-01-23T14:26:31;99788.16;;;4.76;100.00
70815;BME280;58428;49.478;10.986;2023-01-23T14:29:02;99784.06;;;4.69;100.00
70815;BME280;58428;49.478;10.986;2023-01-23T14:31:30;99778.72;;;4.69;100.00
70815;BME280;58428;49.478;10.986;2023-01-23T14:34:15;99782.97;;;4.65;100.00
70815;BME280;58428;49.478;10.986;2023-01-23T14:36:44;99785.31;;;4.57;100.00
70815;BME280;58428;49.478;10.986;2023-01-23T14:39:29;99782.31;;;4.53;100.00
70815;BME280;58428;49.478;10.986;2023-01-23T14:41:58;99790.75;;;4.40;100.00
70815;BME280;58428;49.478;10.986;2023-01-23T14:44:41;99792.56;;;4.35;100.00
70815;BME280;58428;49.478;10.986;2023-01-23T14:50:08;99799.41;;;4.47;100.00
70815;BME280;58428;49.478;10.986;2023-01-23T14:52:37;99806.44;;;4.53;100.00
70815;BME280;58428;49.478;10.986;2023-01-23T14:55:20;99796.84;;;4.57;100.00
70815;BME280;58428;49.478;10.986;2023-01-23T14:57:50;99795.72;;;4.53;100.00
70815;BME280;58428;49.478;10.986;2023-01-23T15:00:20;99797.38;;;4.59;100.00
70815;BME280;58428;49.478;10.986;2023-01-23T15:02:47;99796.38;;;4.65;100.00
70815;BME280;58428;49.478;10.986;2023-01-23T15:05:23;99802.53;;;4.66;100.00
70815;BME280;58428;49.478;10.986;2023-01-23T15:08:01;99794.94;;;4.58;100.00
70815;BME280;58428;49.478;10.986;2023-01-23T15:13:12;99805.97;;;4.61;100.00
70815;BME280;58428;49.478;10.986;2023-01-23T15:15:44;99808.41;;;4.63;100.00